createdAt,value
2022-10-07T00:00:39.007Z,102520.59
2022-10-07T00:03:11.043Z,102532.56
2022-10-07T00:05:40.764Z,102518.81
2022-10-07T00:08:10.177Z,102517.38
2022-10-07T00:10:40.958Z,102518.81
2022-10-07T00:13:12.170Z,102511.00
2022-10-07T00:15:41.810Z,102510.06
2022-10-07T00:18:14.008Z,102507.06
2022-10-07T00:20:43.872Z,102495.44
2022-10-07T00:23:13.267Z,102503.00
2022-10-07T00:25:42.624Z,102505.38
2022-10-07T00:28:12.062Z,102499.97
2022-10-07T00:30:41.474Z,102489.66
2022-10-07T00:33:13.532Z,102491.25
2022-10-07T00:35:42.897Z,102489.44
2022-10-07T00:38:12.273Z,102480.69
2022-10-07T00:40:41.663Z,102472.69
2022-10-07T00:43:26.310Z,102468.88
2022-10-07T00:45:56.959Z,102464.59
2022-10-07T00:48:31.264Z,102463.97
2022-10-07T00:51:02.418Z,102465.53
2022-10-07T00:53:34.550Z,102467.47
2022-10-07T00:56:04.561Z,102468.63
2022-10-07T00:58:35.349Z,102461.91
2022-10-07T01:01:05.104Z,102474.53
2022-10-07T01:03:37.894Z,102478.41
2022-10-07T01:06:09.326Z,102479.97
2022-10-07T01:08:38.882Z,102478.19
2022-10-07T01:11:16.848Z,102478.59
2022-10-07T01:13:54.658Z,102471.00
2022-10-07T01:16:29.695Z,102471.91
2022-10-07T01:19:10.749Z,102471.66
2022-10-07T01:21:44.732Z,102468.16
2022-10-07T01:24:26.297Z,102472.66
2022-10-07T01:27:01.229Z,102466.00
2022-10-07T01:29:33.643Z,102474.34
2022-10-07T01:32:07.541Z,102469.22
2022-10-07T01:34:37.666Z,102465.84
2022-10-07T01:37:09.737Z,102460.72
2022-10-07T01:39:41.567Z,102463.41
2022-10-07T01:42:14.232Z,102464.06
2022-10-07T01:44:44.065Z,102468.06
2022-10-07T01:47:13.550Z,102460.72
2022-10-07T01:49:42.962Z,102464.94
2022-10-07T01:52:24.097Z,102462.28
2022-10-07T01:55:09.937Z,102467.16
2022-10-07T01:57:47.363Z,102463.81
2022-10-07T02:00:17.858Z,102464.47
2022-10-07T02:02:57.690Z,102467.59
2022-10-07T02:05:34.600Z,102455.13
2022-10-07T02:08:15.404Z,102442.53
2022-10-07T02:10:53.139Z,102434.63
2022-10-07T02:13:29.724Z,102417.97
2022-10-07T02:16:05.630Z,102395.75
2022-10-07T02:18:36.107Z,102377.44
2022-10-07T02:21:08.142Z,102365.13
2022-10-07T02:23:39.960Z,102348.19
2022-10-07T02:26:09.783Z,102346.13
2022-10-07T02:28:44.119Z,102337.44
2022-10-07T02:31:18.181Z,102310.25
2022-10-07T02:33:51.111Z,102298.94
2022-10-07T02:36:24.238Z,102292.16
2022-10-07T02:38:53.774Z,102294.38
2022-10-07T02:41:33.935Z,102288.97
2022-10-07T02:44:12.945Z,102278.34
2022-10-07T02:46:47.145Z,102265.00
2022-10-07T02:49:18.383Z,102260.25
2022-10-07T02:51:50.768Z,102240.25
2022-10-07T02:54:23.300Z,102235.88
2022-10-07T02:56:53.018Z,102210.97
2022-10-07T02:59:25.458Z,102192.00
2022-10-07T03:01:56.906Z,102183.94
2022-10-07T03:04:26.509Z,102180.75
2022-10-07T03:06:56.197Z,102167.91
2022-10-07T03:09:25.607Z,102150.81
2022-10-07T03:11:54.966Z,102155.66
2022-10-07T03:14:27.232Z,102141.97
2022-10-07T03:16:56.606Z,102138.16
2022-10-07T03:19:25.957Z,102145.50
2022-10-07T03:21:56.169Z,102137.66
2022-10-07T03:24:25.625Z,102130.75
2022-10-07T03:26:54.985Z,102128.06
2022-10-07T03:29:27.652Z,102123.84
2022-10-07T03:31:57.031Z,102125.28
2022-10-07T03:34:27.347Z,102118.53
2022-10-07T03:36:56.881Z,102101.41
2022-10-07T03:39:26.265Z,102115.66
2022-10-07T03:41:57.092Z,102105.91
2022-10-07T03:44:29.264Z,102109.63
2022-10-07T03:46:58.932Z,102107.47
2022-10-07T03:49:28.477Z,102101.81
2022-10-07T03:51:59.401Z,102101.88
2022-10-07T03:54:28.832Z,102095.56
2022-10-07T03:56:58.265Z,102106.06
2022-10-07T03:59:30.402Z,102103.31
2022-10-07T04:01:59.787Z,102106.81
2022-10-07T04:04:29.190Z,102107.69
2022-10-07T04:06:58.587Z,102108.41
2022-10-07T04:09:28.376Z,102101.84
2022-10-07T04:11:57.766Z,102103.31
2022-10-07T04:14:29.716Z,102101.22
2022-10-07T04:16:59.127Z,102095.81
2022-10-07T04:19:30.131Z,102109.34
2022-10-07T04:21:59.772Z,102105.09
2022-10-07T04:24:29.124Z,102103.38
2022-10-07T04:26:58.520Z,102104.25
2022-10-07T04:29:32.267Z,102100.41
2022-10-07T04:32:04.838Z,102098.84
2022-10-07T04:34:34.207Z,102083.34
2022-10-07T04:37:05.505Z,102089.50
2022-10-07T04:39:59.233Z,102083.88
2022-10-07T04:42:36.736Z,102080.03
2022-10-07T04:45:10.622Z,102076.50
2022-10-07T04:47:40.031Z,102082.41
2022-10-07T04:50:10.873Z,102081.44
2022-10-07T04:52:42.529Z,102088.88
2022-10-07T04:55:12.405Z,102075.56
2022-10-07T04:57:41.933Z,102079.44
2022-10-07T05:00:15.103Z,102078.25
2022-10-07T05:02:45.672Z,102082.25
2022-10-07T05:05:15.094Z,102096.22
2022-10-07T05:07:44.681Z,102103.78
2022-10-07T05:10:14.627Z,102115.16
2022-10-07T05:12:44.013Z,102113.28
2022-10-07T05:15:16.717Z,102113.31
2022-10-07T05:17:46.505Z,102128.38
2022-10-07T05:20:15.965Z,102128.53
2022-10-07T05:22:45.350Z,102136.69
2022-10-07T05:25:14.750Z,102145.28
2022-10-07T05:27:44.353Z,102156.47
2022-10-07T05:30:17.369Z,102159.56
2022-10-07T05:32:46.743Z,102154.59
2022-10-07T05:35:16.574Z,102157.31
2022-10-07T05:37:50.825Z,102147.56
2022-10-07T05:40:20.667Z,102142.97
2022-10-07T05:42:50.233Z,102136.44
2022-10-07T05:45:22.522Z,102125.03
2022-10-07T05:47:51.912Z,102123.97
2022-10-07T05:50:21.286Z,102123.75
2022-10-07T05:52:52.032Z,102129.13
2022-10-07T05:55:21.405Z,102122.63
2022-10-07T05:57:50.773Z,102129.66
2022-10-07T06:00:22.785Z,102119.41
2022-10-07T06:02:54.400Z,102113.38
2022-10-07T06:05:23.981Z,102115.28
2022-10-07T06:07:53.354Z,102105.53
2022-10-07T06:10:35.262Z,102120.69
2022-10-07T06:13:10.381Z,102119.47
2022-10-07T06:15:42.353Z,102113.69
2022-10-07T06:18:11.942Z,102112.41
2022-10-07T06:20:41.330Z,102117.53
2022-10-07T06:23:10.716Z,102116.13
2022-10-07T06:25:40.074Z,102118.53
2022-10-07T06:28:09.893Z,102118.16
2022-10-07T06:30:42.977Z,102117.72
2022-10-07T06:33:12.372Z,102120.25
2022-10-07T06:35:41.759Z,102118.53
2022-10-07T06:38:11.522Z,102115.00
2022-10-07T06:40:41.002Z,102123.53
2022-10-07T06:43:10.376Z,102128.50
2022-10-07T06:45:42.774Z,102139.25
2022-10-07T06:48:14.773Z,102147.09
2022-10-07T06:50:52.510Z,102150.00
2022-10-07T06:53:22.276Z,102154.19
2022-10-07T06:55:54.672Z,102170.06
2022-10-07T06:58:24.242Z,102178.69
2022-10-07T07:00:54.001Z,102182.78
2022-10-07T07:03:26.642Z,102196.19
2022-10-07T07:05:56.555Z,102212.97
2022-10-07T07:08:29.145Z,102222.16
2022-10-07T07:10:58.874Z,102240.97
2022-10-07T07:13:28.398Z,102251.72
2022-10-07T07:15:59.007Z,102271.53
2022-10-07T07:18:31.001Z,102274.91
2022-10-07T07:21:07.804Z,102295.56
2022-10-07T07:23:37.196Z,102307.16
2022-10-07T07:26:06.558Z,102317.13
2022-10-07T07:28:36.070Z,102320.53
2022-10-07T07:31:10.462Z,102315.84
2022-10-07T07:33:42.743Z,102316.50
2022-10-07T07:36:16.530Z,102316.16
2022-10-07T07:38:46.030Z,102327.00
2022-10-07T07:41:15.383Z,102321.63
2022-10-07T07:43:44.784Z,102330.91
2022-10-07T07:46:14.186Z,102340.31
2022-10-07T07:48:46.441Z,102335.59
2022-10-07T07:51:16.786Z,102346.78
2022-10-07T07:53:46.461Z,102349.81
2022-10-07T07:56:16.066Z,102355.81
2022-10-07T07:58:45.545Z,102354.00
2022-10-07T08:01:16.824Z,102355.41
2022-10-07T08:03:50.537Z,102342.94
2022-10-07T08:06:23.210Z,102346.44
2022-10-07T08:08:53.133Z,102335.88
2022-10-07T08:11:23.484Z,102328.03
2022-10-07T08:13:55.287Z,102322.97
2022-10-07T08:16:26.433Z,102332.84
2022-10-07T08:19:00.030Z,102320.94
2022-10-07T08:21:32.969Z,102316.69
2022-10-07T08:24:04.821Z,102314.31
2022-10-07T08:26:35.481Z,102311.84
2022-10-07T08:29:04.886Z,102308.25
2022-10-07T08:31:35.733Z,102309.38
2022-10-07T08:34:08.255Z,102309.69
2022-10-07T08:36:37.700Z,102295.41
2022-10-07T08:39:08.046Z,102296.34
2022-10-07T08:41:45.805Z,102293.31
2022-10-07T08:44:22.035Z,102275.25
2022-10-07T08:47:06.495Z,102267.72
2022-10-07T08:49:45.379Z,102252.63
2022-10-07T08:52:28.984Z,102245.53
2022-10-07T08:54:59.318Z,102243.44
2022-10-07T08:57:39.649Z,102238.19
2022-10-07T09:00:10.487Z,102222.84
2022-10-07T09:02:47.430Z,102216.94
2022-10-07T09:05:24.538Z,102209.13
2022-10-07T09:07:56.234Z,102203.47
2022-10-07T09:10:33.129Z,102190.72
2022-10-07T09:13:05.501Z,102185.28
2022-10-07T09:15:43.060Z,102178.69
2022-10-07T09:18:18.893Z,102167.81
2022-10-07T09:20:55.090Z,102161.84
2022-10-07T09:23:27.357Z,102156.06
2022-10-07T09:38:01.669Z,102071.63
2022-10-07T09:40:37.430Z,102056.06
2022-10-07T09:43:14.210Z,102042.38
2022-10-07T09:45:47.564Z,102022.00
2022-10-07T09:48:22.012Z,102004.50
2022-10-07T09:50:51.928Z,101996.25
2022-10-07T09:53:26.473Z,101973.16
2022-10-07T09:55:56.852Z,101981.75
2022-10-07T09:58:28.817Z,101955.75
2022-10-07T10:00:59.383Z,101968.28
2022-10-07T10:03:32.648Z,101946.13
2022-10-07T10:06:03.516Z,101936.31
2022-10-07T10:08:37.592Z,101932.84
2022-10-07T10:11:08.935Z,101936.34
2022-10-07T10:13:40.666Z,101927.16
2022-10-07T10:16:36.816Z,101921.72
2022-10-07T10:19:07.810Z,101920.41
2022-10-07T10:21:38.270Z,101906.59
2022-10-07T10:24:14.937Z,101901.72
2022-10-07T10:27:01.577Z,101912.25
2022-10-07T10:29:43.186Z,101907.53
2022-10-07T10:32:48.994Z,101901.19
2022-10-07T10:35:22.978Z,101904.09
2022-10-07T10:38:13.225Z,101883.06
2022-10-07T10:40:49.490Z,101881.44
2022-10-07T10:43:34.312Z,101865.22
2022-10-07T10:46:16.780Z,101858.34
2022-10-07T10:48:48.003Z,101857.88
2022-10-07T10:51:32.037Z,101847.13
2022-10-07T10:54:10.433Z,101838.31
2022-10-07T10:56:45.835Z,101840.38
2022-10-07T10:59:42.538Z,101819.81
2022-10-07T11:02:24.308Z,101802.38
2022-10-07T11:04:57.226Z,101817.25
2022-10-07T11:07:29.654Z,101797.50
2022-10-07T11:10:02.747Z,101779.41
2022-10-07T11:12:37.509Z,101742.53
2022-10-07T11:15:11.825Z,101737.69
2022-10-07T11:17:41.683Z,101722.44
2022-10-07T11:20:18.581Z,101701.25
2022-10-07T11:22:53.554Z,101698.16
2022-10-07T11:25:30.826Z,101686.44
2022-10-07T11:28:11.023Z,101656.19
2022-10-07T11:30:49.304Z,101668.81
2022-10-07T11:33:24.290Z,101661.56
2022-10-07T11:35:57.437Z,101655.69
2022-10-07T11:38:29.861Z,101654.19
2022-10-07T11:41:02.530Z,101661.13
2022-10-07T11:43:38.201Z,101655.00
2022-10-07T11:46:11.964Z,101636.34
2022-10-07T11:48:44.081Z,101640.53
2022-10-07T11:51:23.447Z,101625.88
2022-10-07T11:53:55.202Z,101615.94
2022-10-07T11:56:26.228Z,101604.16
2022-10-07T11:59:03.142Z,101595.81
2022-10-07T12:01:56.389Z,101598.50
2022-10-07T12:04:48.482Z,101592.91
2022-10-07T12:07:59.421Z,101577.94
2022-10-07T12:10:33.614Z,101575.59
2022-10-07T12:13:07.157Z,101555.25
2022-10-07T12:15:42.573Z,101544.41
2022-10-07T12:18:28.489Z,101520.81
2022-10-07T12:21:03.919Z,101508.88
2022-10-07T12:23:43.202Z,101515.50
2022-10-07T12:26:51.404Z,101485.84
2022-10-07T12:29:48.363Z,101484.59
2022-10-07T12:32:56.548Z,101477.22
2022-10-07T12:35:54.205Z,101463.50
2022-10-07T12:38:28.540Z,101437.75
2022-10-07T12:41:06.240Z,101422.38
2022-10-07T12:43:47.253Z,101398.44
2022-10-07T12:46:19.194Z,101387.28
2022-10-07T12:48:55.173Z,101387.06
2022-10-07T12:51:28.016Z,101401.97
2022-10-07T12:53:58.863Z,101384.53
2022-10-07T12:56:31.347Z,101406.53
2022-10-07T12:59:45.674Z,101388.03
2022-10-07T13:02:45.361Z,101361.22
2022-10-07T13:05:43.702Z,101351.66
2022-10-07T13:08:46.075Z,101341.50
2022-10-07T13:11:47.697Z,101311.44
2022-10-07T13:14:20.656Z,101302.03
2022-10-07T13:16:55.917Z,101312.31
2022-10-07T13:19:30.398Z,101316.75
2022-10-07T13:22:07.369Z,101321.84
2022-10-07T13:24:36.820Z,101320.31
2022-10-07T13:27:10.258Z,101303.88
2022-10-07T13:29:40.862Z,101312.16
2022-10-07T13:32:16.890Z,101294.00
2022-10-07T13:34:47.521Z,101281.41
2022-10-07T13:37:31.316Z,101267.81
2022-10-07T13:40:21.458Z,101258.31
2022-10-07T13:42:56.359Z,101250.34
2022-10-07T13:45:26.132Z,101242.78
2022-10-07T13:47:55.928Z,101253.84
2022-10-07T13:50:29.175Z,101254.72
2022-10-07T13:53:01.541Z,101237.56
2022-10-07T13:55:31.774Z,101238.38
2022-10-07T13:58:04.258Z,101228.16
2022-10-07T14:12:58.561Z,101259.66
2022-10-07T14:15:29.859Z,101243.72
2022-10-07T14:18:00.801Z,101256.50
2022-10-07T14:20:31.952Z,101251.03
2022-10-07T14:23:02.611Z,101266.22
2022-10-07T14:25:33.503Z,101284.19
2022-10-07T14:28:23.950Z,101275.84
2022-10-07T14:31:31.316Z,101277.59
2022-10-07T14:34:15.902Z,101296.41
2022-10-07T14:37:03.761Z,101303.25
2022-10-07T14:39:38.696Z,101312.00
2022-10-07T14:42:13.253Z,101304.16
2022-10-07T14:44:45.450Z,101289.94
2022-10-07T14:47:17.655Z,101262.97
2022-10-07T14:49:47.059Z,101256.31
2022-10-07T14:52:21.825Z,101242.28
2022-10-07T14:54:51.857Z,101230.78
2022-10-07T14:57:21.395Z,101237.88
2022-10-07T14:59:53.561Z,101234.31
2022-10-07T15:02:23.130Z,101239.50
2022-10-07T15:04:52.776Z,101233.28
2022-10-07T15:07:22.226Z,101232.31
2022-10-07T15:09:51.638Z,101227.72
2022-10-07T15:12:21.025Z,101224.81
2022-10-07T15:14:53.006Z,101227.22
2022-10-07T15:17:22.727Z,101253.94
2022-10-07T15:19:54.348Z,101265.78
2022-10-07T15:22:23.709Z,101276.75
2022-10-07T15:24:53.066Z,101278.31
2022-10-07T15:27:22.478Z,101276.44
2022-10-07T15:29:55.399Z,101282.41
2022-10-07T15:32:25.379Z,101274.47
2022-10-07T15:34:55.165Z,101289.16
2022-10-07T15:37:25.248Z,101283.78
2022-10-07T15:39:54.628Z,101277.72
2022-10-07T15:42:26.515Z,101288.09
2022-10-07T15:44:58.458Z,101294.81
2022-10-07T15:47:28.197Z,101300.13
2022-10-07T15:49:57.701Z,101298.97
2022-10-07T15:52:27.689Z,101298.03
2022-10-07T15:54:57.249Z,101307.44
2022-10-07T15:57:27.147Z,101316.00
2022-10-07T15:59:59.225Z,101312.38
2022-10-07T16:02:28.939Z,101300.28
2022-10-07T16:04:58.326Z,101304.69
2022-10-07T16:07:30.271Z,101310.56
2022-10-07T16:09:59.807Z,101306.13
2022-10-07T16:12:29.169Z,101314.75
2022-10-07T16:15:02.930Z,101317.28
2022-10-07T16:17:32.323Z,101306.81
2022-10-07T16:20:06.559Z,101318.06
2022-10-07T16:22:38.405Z,101322.25
2022-10-07T16:25:08.694Z,101320.50
2022-10-07T16:27:50.342Z,101318.75
2022-10-07T16:30:34.824Z,101316.84
2022-10-07T16:33:04.229Z,101316.84
2022-10-07T16:35:33.581Z,101312.44
2022-10-07T16:38:03.207Z,101299.47
2022-10-07T16:40:32.578Z,101299.38
2022-10-07T16:43:02.045Z,101288.94
2022-10-07T16:45:34.006Z,101275.13
2022-10-07T16:48:03.359Z,101280.31
2022-10-07T16:50:32.801Z,101259.53
2022-10-07T16:53:02.169Z,101260.31
2022-10-07T16:55:31.555Z,101256.78
2022-10-07T16:58:00.932Z,101257.50
2022-10-07T17:00:31.204Z,101253.16
2022-10-07T17:03:03.177Z,101259.19
2022-10-07T17:05:32.560Z,101261.72
2022-10-07T17:08:01.978Z,101240.09
2022-10-07T17:10:31.402Z,101227.13
2022-10-07T17:13:01.967Z,101233.94
2022-10-07T17:15:31.377Z,101232.31
2022-10-07T17:18:03.414Z,101223.56
2022-10-07T17:20:33.205Z,101224.41
2022-10-07T17:23:03.288Z,101214.00
2022-10-07T17:25:32.645Z,101219.97
2022-10-07T17:28:02.082Z,101224.25
2022-10-07T17:30:33.418Z,101233.72
2022-10-07T17:33:05.390Z,101242.25
2022-10-07T17:35:35.118Z,101240.53
2022-10-07T17:38:05.856Z,101248.09
2022-10-07T17:40:36.673Z,101242.03
2022-10-07T17:43:08.210Z,101241.13
2022-10-07T17:45:37.910Z,101241.13
2022-10-07T17:48:15.397Z,101238.38
2022-10-07T17:50:44.764Z,101241.75
2022-10-07T17:53:14.142Z,101242.66
2022-10-07T17:55:45.101Z,101239.09
2022-10-07T17:58:14.965Z,101239.00
2022-10-07T18:00:44.464Z,101229.56
2022-10-07T18:03:16.445Z,101224.31
2022-10-07T18:05:52.786Z,101231.06
2022-10-07T18:08:22.682Z,101232.75
2022-10-07T18:10:54.182Z,101240.38
2022-10-07T18:13:36.065Z,101221.41
2022-10-07T18:16:07.300Z,101218.81
2022-10-07T18:18:39.291Z,101223.84
2022-10-07T18:21:09.716Z,101229.00
2022-10-07T18:23:40.112Z,101209.91
2022-10-07T18:26:11.458Z,101199.66
2022-10-07T18:28:41.505Z,101187.53
2022-10-07T18:31:12.739Z,101185.66
2022-10-07T18:33:44.892Z,101187.31
2022-10-07T18:36:16.404Z,101174.34
2022-10-07T18:38:46.656Z,101164.81
2022-10-07T18:41:17.501Z,101161.16
2022-10-07T18:43:48.149Z,101162.16
2022-10-07T18:46:19.966Z,101147.47
2022-10-07T18:48:52.325Z,101144.84
2022-10-07T18:51:21.687Z,101137.00
2022-10-07T18:53:51.126Z,101145.59
2022-10-07T18:56:24.373Z,101153.16
2022-10-07T18:58:55.283Z,101159.19
2022-10-07T19:01:26.367Z,101157.34
2022-10-07T19:04:01.250Z,101150.31
2022-10-07T19:06:32.233Z,101154.53
2022-10-07T19:09:04.211Z,101165.75
2022-10-07T19:11:33.635Z,101164.03
2022-10-07T19:14:01.106Z,101156.09
2022-10-07T19:16:34.548Z,101161.22
2022-10-07T19:19:09.086Z,101144.91
2022-10-07T19:21:40.435Z,101153.38
2022-10-07T19:24:10.195Z,101154.91
2022-10-07T19:26:42.336Z,101153.16
2022-10-07T19:29:13.312Z,101169.44
2022-10-07T19:31:44.141Z,101175.31
2022-10-07T19:34:18.024Z,101183.94
2022-10-07T19:36:47.917Z,101189.94
2022-10-07T19:39:18.865Z,101192.41
2022-10-07T19:41:49.082Z,101194.06
2022-10-07T19:44:18.666Z,101200.94
2022-10-07T19:46:48.051Z,101196.50
2022-10-07T19:49:20.036Z,101205.19
2022-10-07T19:51:49.429Z,101200.75
2022-10-07T19:54:18.822Z,101210.06
2022-10-07T19:56:48.221Z,101212.53
2022-10-07T19:59:18.154Z,101220.00
2022-10-07T20:01:49.701Z,101225.25
2022-10-07T20:04:23.208Z,101230.28
2022-10-07T20:06:52.608Z,101225.81
2022-10-07T20:09:22.536Z,101229.09
2022-10-07T20:11:51.950Z,101228.97
2022-10-07T20:14:21.336Z,101231.28
2022-10-07T20:16:50.830Z,101239.59
2022-10-07T20:19:22.900Z,101237.00
2022-10-07T20:21:52.341Z,101247.06
2022-10-07T20:24:21.717Z,101255.50
2022-10-07T20:26:51.097Z,101261.44
2022-10-07T20:29:25.147Z,101261.25
2022-10-07T20:31:55.083Z,101255.91
2022-10-07T20:34:27.125Z,101263.56
2022-10-07T20:36:57.161Z,101271.16
2022-10-07T20:39:39.086Z,101271.00
2022-10-07T20:42:21.878Z,101269.13
2022-10-07T20:44:51.716Z,101273.13
2022-10-07T20:47:21.986Z,101281.44
2022-10-07T20:49:55.798Z,101271.22
2022-10-07T20:52:27.365Z,101268.44
2022-10-07T20:54:57.333Z,101264.00
2022-10-07T20:57:28.529Z,101256.41
2022-10-07T20:59:58.475Z,101243.47
2022-10-07T21:02:29.126Z,101256.19
2022-10-07T21:05:01.741Z,101243.31
2022-10-07T21:07:31.242Z,101245.69
2022-10-07T21:10:00.855Z,101237.84
2022-10-07T21:12:30.374Z,101236.09
2022-10-07T21:15:01.130Z,101246.16
2022-10-07T21:17:30.657Z,101239.34
2022-10-07T21:20:02.648Z,101238.56
2022-10-07T21:22:32.221Z,101232.47
2022-10-07T21:25:01.589Z,101229.00
2022-10-07T21:27:31.125Z,101226.16
2022-10-07T21:30:00.510Z,101216.91
2022-10-07T21:32:30.168Z,101211.72
2022-10-07T21:35:02.142Z,101206.69
2022-10-07T21:37:32.695Z,101202.38
2022-10-07T21:40:02.353Z,101193.53
2022-10-07T21:42:32.440Z,101195.25
2022-10-07T21:45:01.879Z,101184.25
2022-10-07T21:47:31.281Z,101195.94
2022-10-07T21:50:03.324Z,101194.25
2022-10-07T21:52:32.841Z,101192.25
2022-10-07T21:55:02.497Z,101199.22
2022-10-07T21:57:31.907Z,101186.34
2022-10-07T22:00:01.334Z,101187.91
2022-10-07T22:02:31.080Z,101179.34
2022-10-07T22:05:03.139Z,101186.03
2022-10-07T22:07:45.033Z,101188.63
2022-10-07T22:10:14.397Z,101189.28
2022-10-07T22:12:43.982Z,101191.88
2022-10-07T22:15:13.679Z,101189.28
2022-10-07T22:17:43.056Z,101198.69
2022-10-07T22:20:15.156Z,101189.84
2022-10-07T22:22:44.855Z,101200.03
2022-10-07T22:25:14.465Z,101194.75
2022-10-07T22:27:43.850Z,101212.00
2022-10-07T22:30:14.490Z,101208.34
2022-10-07T22:32:44.437Z,101204.94
2022-10-07T22:35:34.979Z,101202.13
2022-10-07T22:38:04.638Z,101201.88
2022-10-07T22:40:34.038Z,101200.22
2022-10-07T22:43:03.417Z,101200.19
2022-10-07T22:45:32.859Z,101192.28
2022-10-07T22:48:03.067Z,101194.72
2022-10-07T22:50:36.026Z,101188.66
2022-10-07T22:53:05.494Z,101193.00
2022-10-07T22:55:37.266Z,101186.00
2022-10-07T22:58:06.690Z,101189.34
2022-10-07T23:00:36.423Z,101197.03
2022-10-07T23:03:06.337Z,101189.34
2022-10-07T23:05:40.044Z,101199.38
2022-10-07T23:08:09.924Z,101195.00
2022-10-07T23:10:39.372Z,101193.19
2022-10-07T23:13:08.785Z,101196.59
2022-10-07T23:15:38.285Z,101205.03
2022-10-07T23:18:07.998Z,101199.72
2022-10-07T23:20:39.983Z,101198.78
2022-10-07T23:23:09.498Z,101202.84
2022-10-07T23:25:44.536Z,101206.97
2022-10-07T23:28:14.027Z,101224.06
2022-10-07T23:30:43.522Z,101217.22
2022-10-07T23:33:13.817Z,101224.84
2022-10-07T23:35:46.636Z,101218.56
2022-10-07T23:38:17.874Z,101220.97
2022-10-07T23:40:47.377Z,101220.84
2022-10-07T23:43:17.105Z,101218.94
2022-10-07T23:45:47.866Z,101218.94
2022-10-07T23:48:17.251Z,101222.97
2022-10-07T23:50:50.766Z,101232.47
2022-10-07T23:53:21.323Z,101222.03
2022-10-07T23:55:51.849Z,101216.94
2022-10-07T23:58:23.034Z,101217.75
